sensor_id;sensor_type;location;lat;lon;timestamp;pressure;altitude;pressure_sealevel;temperature;humidity
78144;BME280;67394;52.522;13.622;2023-10-13T00:00:08;100843.94;;;12.99;100.00
78144;BME280;67394;52.522;13.622;2023-10-13T00:02:35;100842.22;;;13.01;100.00
78144;BME280;67394;52.522;13.622;2023-10-13T00:05:02;100843.03;;;13.03;100.00
78144;BME280;67394;52.522;13.622;2023-10-13T00:07:29;100838.78;;;12.99;100.00
78144;BME280;67394;52.522;13.622;2023-10-13T00:09:56;100841.38;;;12.96;100.00
78144;BME280;67394;52.522;13.622;2023-10-13T00:12:24;100848.22;;;12.99;100.00
78144;BME280;67394;52.522;13.622;2023-10-13T00:14:52;100839.66;;;12.98;100.00
78144;BME280;67394;52.522;13.622;2023-10-13T00:17:19;100844.78;;;12.98;100.00
78144;BME280;67394;52.522;13.622;2023-10-13T00:19:46;100836.22;;;12.96;100.00
78144;BME280;67394;52.522;13.622;2023-10-13T00:22:14;100830.16;;;13.03;100.00
78144;BME280;67394;52.522;13.622;2023-10-13T00:24:42;100833.66;;;12.96;100.00
78144;BME280;67394;52.522;13.622;2023-10-13T00:27:10;100831.94;;;12.95;100.00
78144;BME280;67394;52.522;13.622;2023-10-13T00:29:37;100830.22;;;12.93;100.00
78144;BME280;67394;52.522;13.622;2023-10-13T00:32:06;100835.38;;;12.94;100.00
78144;BME280;67394;52.522;13.622;2023-10-13T00:34:35;100825.09;;;12.94;100.00
78144;BME280;67394;52.522;13.622;2023-10-13T00:37:02;100837.06;;;12.98;100.00
78144;BME280;67394;52.522;13.622;2023-10-13T00:39:29;100827.66;;;12.94;100.00
78144;BME280;67394;52.522;13.622;2023-10-13T00:41:56;100820.81;;;12.93;100.00
78144;BME280;67394;52.522;13.622;2023-10-13T00:44:25;100814.00;;;12.88;100.00
78144;BME280;67394;52.522;13.622;2023-10-13T00:46:52;100812.28;;;12.88;100.00
78144;BME280;67394;52.522;13.622;2023-10-13T00:49:19;100811.44;;;12.84;100.00
78144;BME280;67394;52.522;13.622;2023-10-13T00:51:46;100805.44;;;12.84;100.00
78144;BME280;67394;52.522;13.622;2023-10-13T00:54:13;100811.44;;;12.84;100.00
78144;BME280;67394;52.522;13.622;2023-10-13T00:56:42;100803.72;;;12.83;100.00
78144;BME280;67394;52.522;13.622;2023-10-13T00:59:09;100814.00;;;12.83;100.00
78144;BME280;67394;52.522;13.622;2023-10-13T01:01:35;100806.34;;;12.81;100.00
78144;BME280;67394;52.522;13.622;2023-10-13T01:04:03;100797.78;;;12.78;100.00
78144;BME280;67394;52.522;13.622;2023-10-13T01:06:30;100810.63;;;12.78;100.00
78144;BME280;67394;52.522;13.622;2023-10-13T01:09:10;100805.50;;;12.72;100.00
78144;BME280;67394;52.522;13.622;2023-10-13T01:11:38;100801.22;;;12.74;100.00
78144;BME280;67394;52.522;13.622;2023-10-13T01:14:05;100802.13;;;12.67;100.00
78144;BME280;67394;52.522;13.622;2023-10-13T01:16:32;100808.13;;;12.69;100.00
78144;BME280;67394;52.522;13.622;2023-10-13T01:18:59;100810.72;;;12.67;100.00
78144;BME280;67394;52.522;13.622;2023-10-13T01:21:26;100797.84;;;12.69;100.00
78144;BME280;67394;52.522;13.622;2023-10-13T01:23:54;100799.56;;;12.68;100.00
78144;BME280;67394;52.522;13.622;2023-10-13T01:26:20;100802.13;;;12.67;100.00
78144;BME280;67394;52.522;13.622;2023-10-13T01:28:47;100791.88;;;12.64;100.00
78144;BME280;67394;52.522;13.622;2023-10-13T01:31:14;100795.28;;;12.66;100.00
78144;BME280;67394;52.522;13.622;2023-10-13T01:33:41;100796.16;;;12.65;100.00
78144;BME280;67394;52.522;13.622;2023-10-13T01:36:08;100807.28;;;12.64;100.00
78144;BME280;67394;52.522;13.622;2023-10-13T01:38:35;100797.84;;;12.66;100.00
78144;BME280;67394;52.522;13.622;2023-10-13T01:41:05;100804.69;;;12.68;100.00
78144;BME280;67394;52.522;13.622;2023-10-13T01:43:32;100802.09;;;12.73;100.00
78144;BME280;67394;52.522;13.622;2023-10-13T01:45:58;100803.84;;;12.71;100.00
78144;BME280;67394;52.522;13.622;2023-10-13T01:48:25;100802.94;;;12.73;100.00
78144;BME280;67394;52.522;13.622;2023-10-13T01:50:56;100810.66;;;12.72;100.00
78144;BME280;67394;52.522;13.622;2023-10-13T01:53:22;100808.97;;;12.71;100.00
78144;BME280;67394;52.522;13.622;2023-10-13T01:55:49;100800.34;;;12.76;100.00
78144;BME280;67394;52.522;13.622;2023-10-13T01:58:16;100805.50;;;12.72;100.00
78144;BME280;67394;52.522;13.622;2023-10-13T02:00:43;100793.56;;;12.71;100.00
78144;BME280;67394;52.522;13.622;2023-10-13T02:03:11;100803.00;;;12.64;100.00
78144;BME280;67394;52.522;13.622;2023-10-13T02:05:38;100799.56;;;12.64;100.00
78144;BME280;67394;52.522;13.622;2023-10-13T02:08:05;100803.84;;;12.66;100.00
78144;BME280;67394;52.522;13.622;2023-10-13T02:10:32;100802.09;;;12.73;100.00
78144;BME280;67394;52.522;13.622;2023-10-13T02:12:59;100797.84;;;12.67;100.00
78144;BME280;67394;52.522;13.622;2023-10-13T02:15:25;100792.72;;;12.63;100.00
78144;BME280;67394;52.522;13.622;2023-10-13T02:17:53;100792.72;;;12.66;100.00
78144;BME280;67394;52.522;13.622;2023-10-13T02:20:19;100785.00;;;12.66;100.00
78144;BME280;67394;52.522;13.622;2023-10-13T02:22:46;100782.41;;;12.67;100.00
78144;BME280;67394;52.522;13.622;2023-10-13T02:25:13;100777.28;;;12.66;100.00
78144;BME280;67394;52.522;13.622;2023-10-13T02:27:40;100772.16;;;12.64;100.00
78144;BME280;67394;52.522;13.622;2023-10-13T02:30:08;100762.72;;;12.63;100.00
78144;BME280;67394;52.522;13.622;2023-10-13T02:32:35;100751.56;;;12.63;100.00
78144;BME280;67394;52.522;13.622;2023-10-13T02:35:01;100764.41;;;12.67;100.00
78144;BME280;67394;52.522;13.622;2023-10-13T02:37:28;100755.84;;;12.70;100.00
78144;BME280;67394;52.522;13.622;2023-10-13T02:39:55;100749.84;;;12.66;100.00
78144;BME280;67394;52.522;13.622;2023-10-13T02:42:22;100754.97;;;12.68;100.00
78144;BME280;67394;52.522;13.622;2023-10-13T02:44:49;100756.69;;;12.69;100.00
78144;BME280;67394;52.522;13.622;2023-10-13T02:47:16;100752.34;;;12.72;100.00
78144;BME280;67394;52.522;13.622;2023-10-13T02:49:43;100749.84;;;12.69;100.00
78144;BME280;67394;52.522;13.622;2023-10-13T02:52:10;100742.13;;;12.69;100.00
78144;BME280;67394;52.522;13.622;2023-10-13T02:54:37;100737.84;;;12.67;100.00
78144;BME280;67394;52.522;13.622;2023-10-13T02:57:03;100730.97;;;12.67;100.00
78144;BME280;67394;52.522;13.622;2023-10-13T02:59:32;100750.69;;;12.70;100.00
78144;BME280;67394;52.522;13.622;2023-10-13T03:02:00;100745.50;;;12.71;100.00
78144;BME280;67394;52.522;13.622;2023-10-13T03:04:27;100743.78;;;12.72;100.00
78144;BME280;67394;52.522;13.622;2023-10-13T03:06:54;100744.63;;;12.75;100.00
78144;BME280;67394;52.522;13.622;2023-10-13T03:09:20;100731.75;;;12.75;100.00
78144;BME280;67394;52.522;13.622;2023-10-13T03:11:48;100730.03;;;12.79;100.00
78144;BME280;67394;52.522;13.622;2023-10-13T03:14:20;100728.31;;;12.79;100.00
78144;BME280;67394;52.522;13.622;2023-10-13T03:16:47;100723.19;;;12.78;100.00
78144;BME280;67394;52.522;13.622;2023-10-13T03:19:14;100721.47;;;12.78;100.00
78144;BME280;67394;52.522;13.622;2023-10-13T03:21:40;100727.47;;;12.76;100.00
78144;BME280;67394;52.522;13.622;2023-10-13T03:24:07;100721.47;;;12.77;100.00
78144;BME280;67394;52.522;13.622;2023-10-13T03:26:34;100712.88;;;12.78;100.00
78144;BME280;67394;52.522;13.622;2023-10-13T03:29:04;100707.75;;;12.78;100.00
78144;BME280;67394;52.522;13.622;2023-10-13T03:31:31;100700.00;;;12.81;100.00
78144;BME280;67394;52.522;13.622;2023-10-13T03:33:58;100699.16;;;12.79;100.00
78144;BME280;67394;52.522;13.622;2023-10-13T03:36:25;100693.16;;;12.80;100.00
78144;BME280;67394;52.522;13.622;2023-10-13T03:38:52;100685.38;;;12.83;100.00
78144;BME280;67394;52.522;13.622;2023-10-13T03:41:19;100683.66;;;12.85;100.00
78144;BME280;67394;52.522;13.622;2023-10-13T03:43:46;100672.56;;;12.80;100.00
78144;BME280;67394;52.522;13.622;2023-10-13T03:46:13;100675.94;;;12.87;100.00
78144;BME280;67394;52.522;13.622;2023-10-13T03:48:40;100666.53;;;12.84;100.00
78144;BME280;67394;52.522;13.622;2023-10-13T03:51:07;100663.06;;;12.85;100.00
78144;BME280;67394;52.522;13.622;2023-10-13T03:53:34;100657.06;;;12.88;100.00
78144;BME280;67394;52.522;13.622;2023-10-13T03:56:02;100650.09;;;12.96;100.00
78144;BME280;67394;52.522;13.622;2023-10-13T03:58:29;100659.53;;;12.97;100.00
78144;BME280;67394;52.522;13.622;2023-10-13T04:00:56;100656.19;;;12.92;100.00
78144;BME280;67394;52.522;13.622;2023-10-13T04:03:22;100656.13;;;12.93;100.00
78144;BME280;67394;52.522;13.622;2023-10-13T04:05:51;100651.03;;;12.92;100.00
78144;BME280;67394;52.522;13.622;2023-10-13T04:08:18;100650.19;;;12.91;100.00
78144;BME280;67394;52.522;13.622;2023-10-13T04:10:44;100661.28;;;12.93;100.00
78144;BME280;67394;52.522;13.622;2023-10-13T04:13:11;100653.56;;;12.93;100.00
78144;BME280;67394;52.522;13.622;2023-10-13T04:15:38;100662.13;;;12.94;100.00
78144;BME280;67394;52.522;13.622;2023-10-13T04:18:06;100654.41;;;12.95;100.00
78144;BME280;67394;52.522;13.622;2023-10-13T04:20:33;100650.06;;;13.00;100.00
78144;BME280;67394;52.522;13.622;2023-10-13T04:22:59;100651.78;;;13.00;100.00
78144;BME280;67394;52.522;13.622;2023-10-13T04:25:27;100643.22;;;13.01;100.00
78144;BME280;67394;52.522;13.622;2023-10-13T04:27:54;100641.50;;;12.98;100.00
78144;BME280;67394;52.522;13.622;2023-10-13T04:30:21;100641.50;;;12.98;100.00
78144;BME280;67394;52.522;13.622;2023-10-13T04:32:48;100636.38;;;12.98;100.00
78144;BME280;67394;52.522;13.622;2023-10-13T04:35:15;100636.38;;;12.97;100.00
78144;BME280;67394;52.522;13.622;2023-10-13T04:37:42;100638.09;;;12.96;100.00
78144;BME280;67394;52.522;13.622;2023-10-13T04:40:10;100634.56;;;13.05;100.00
78144;BME280;67394;52.522;13.622;2023-10-13T04:42:39;100632.00;;;13.03;100.00
78144;BME280;67394;52.522;13.622;2023-10-13T04:45:09;100623.47;;;13.03;100.00
78144;BME280;67394;52.522;13.622;2023-10-13T04:47:37;100625.97;;;13.06;100.00
78144;BME280;67394;52.522;13.622;2023-10-13T04:50:04;100625.97;;;13.07;100.00
78144;BME280;67394;52.522;13.622;2023-10-13T04:52:31;100614.81;;;13.08;100.00
78144;BME280;67394;52.522;13.622;2023-10-13T04:54:57;100617.38;;;13.10;100.00
78144;BME280;67394;52.522;13.622;2023-10-13T04:57:24;100608.78;;;13.11;100.00
78144;BME280;67394;52.522;13.622;2023-10-13T04:59:52;100603.63;;;13.11;100.00
78144;BME280;67394;52.522;13.622;2023-10-13T05:02:19;100606.19;;;13.12;100.00
78144;BME280;67394;52.522;13.622;2023-10-13T05:04:46;100604.47;;;13.14;100.00
78144;BME280;67394;52.522;13.622;2023-10-13T05:07:13;100600.97;;;13.22;100.00
78144;BME280;67394;52.522;13.622;2023-10-13T05:09:40;100601.84;;;13.21;100.00
78144;BME280;67394;52.522;13.622;2023-10-13T05:12:06;100601.84;;;13.19;100.00
78144;BME280;67394;52.522;13.622;2023-10-13T05:14:33;100605.28;;;13.19;100.00
78144;BME280;67394;52.522;13.622;2023-10-13T05:17:00;100606.13;;;13.22;100.00
78144;BME280;67394;52.522;13.622;2023-10-13T05:19:27;100606.91;;;13.25;100.00
78144;BME280;67394;52.522;13.622;2023-10-13T05:21:54;100612.91;;;13.26;100.00
78144;BME280;67394;52.522;13.622;2023-10-13T05:24:23;100612.03;;;13.27;100.00
78144;BME280;67394;52.522;13.622;2023-10-13T05:26:51;100606.03;;;13.26;100.00
78144;BME280;67394;52.522;13.622;2023-10-13T05:29:20;100602.59;;;13.29;100.00
78144;BME280;67394;52.522;13.622;2023-10-13T05:31:54;100606.00;;;13.31;100.00
78144;BME280;67394;52.522;13.622;2023-10-13T05:34:21;100598.25;;;13.32;100.00
78144;BME280;67394;52.522;13.622;2023-10-13T05:36:48;100603.41;;;13.32;100.00
78144;BME280;67394;52.522;13.622;2023-10-13T05:39:14;100600.81;;;13.34;100.00
78144;BME280;67394;52.522;13.622;2023-10-13T05:41:41;100607.69;;;13.35;100.00
78144;BME280;67394;52.522;13.622;2023-10-13T05:44:09;100610.13;;;13.45;100.00
78144;BME280;67394;52.522;13.622;2023-10-13T05:46:36;100607.56;;;13.42;100.00
78144;BME280;67394;52.522;13.622;2023-10-13T05:49:04;100606.69;;;13.43;100.00
78144;BME280;67394;52.522;13.622;2023-10-13T05:51:31;100607.50;;;13.47;100.00
78144;BME280;67394;52.522;13.622;2023-10-13T05:53:59;100606.59;;;13.51;100.00
78144;BME280;67394;52.522;13.622;2023-10-13T05:56:26;100608.31;;;13.52;100.00
78144;BME280;67394;52.522;13.622;2023-10-13T05:58:52;100597.97;;;13.53;100.00
78144;BME280;67394;52.522;13.622;2023-10-13T06:01:19;100602.22;;;13.56;100.00
78144;BME280;67394;52.522;13.622;2023-10-13T06:03:46;100596.25;;;13.55;100.00
78144;BME280;67394;52.522;13.622;2023-10-13T06:06:13;100592.81;;;13.55;100.00
78144;BME280;67394;52.522;13.622;2023-10-13T06:08:40;100595.25;;;13.64;100.00
78144;BME280;67394;52.522;13.622;2023-10-13T06:11:07;100593.59;;;13.60;100.00
78144;BME280;67394;52.522;13.622;2023-10-13T06:13:33;100587.53;;;13.64;100.00
78144;BME280;67394;52.522;13.622;2023-10-13T06:16:08;100592.56;;;13.72;100.00
78144;BME280;67394;52.522;13.622;2023-10-13T06:18:35;100575.25;;;13.80;100.00
78144;BME280;67394;52.522;13.622;2023-10-13T06:21:01;100574.38;;;13.82;100.00
78144;BME280;67394;52.522;13.622;2023-10-13T06:23:28;100570.94;;;13.82;100.00
78144;BME280;67394;52.522;13.622;2023-10-13T06:25:55;100578.63;;;13.85;100.00
78144;BME280;67394;52.522;13.622;2023-10-13T06:28:22;100576.81;;;13.90;100.00
78144;BME280;67394;52.522;13.622;2023-10-13T06:30:58;100570.78;;;13.92;100.00
78144;BME280;67394;52.522;13.622;2023-10-13T06:33:25;100575.91;;;13.96;100.00
78144;BME280;67394;52.522;13.622;2023-10-13T06:35:52;100570.72;;;13.97;100.00
78144;BME280;67394;52.522;13.622;2023-10-13T06:38:18;100574.09;;;13.99;100.00
78144;BME280;67394;52.522;13.622;2023-10-13T06:40:45;100572.38;;;14.00;100.00
78144;BME280;67394;52.522;13.622;2023-10-13T06:43:12;100574.06;;;14.02;100.00
78144;BME280;67394;52.522;13.622;2023-10-13T06:45:39;100578.38;;;14.02;100.00
78144;BME280;67394;52.522;13.622;2023-10-13T06:48:06;100579.22;;;14.02;100.00
78144;BME280;67394;52.522;13.622;2023-10-13T06:50:35;100572.28;;;14.07;100.00
78144;BME280;67394;52.522;13.622;2023-10-13T06:53:01;100573.91;;;14.13;100.00
78144;BME280;67394;52.522;13.622;2023-10-13T06:55:28;100573.84;;;14.16;100.00
78144;BME280;67394;52.522;13.622;2023-10-13T06:57:55;100565.06;;;14.27;100.00
78144;BME280;67394;52.522;13.622;2023-10-13T07:00:22;100568.50;;;14.28;100.00
78144;BME280;67394;52.522;13.622;2023-10-13T07:02:52;100564.97;;;14.32;100.00
78144;BME280;67394;52.522;13.622;2023-10-13T07:05:19;100567.50;;;14.35;100.00
78144;BME280;67394;52.522;13.622;2023-10-13T07:07:46;100564.88;;;14.38;100.00
78144;BME280;67394;52.522;13.622;2023-10-13T07:10:13;100567.34;;;14.46;100.00
78144;BME280;67394;52.522;13.622;2023-10-13T07:12:41;100558.69;;;14.50;100.00
78144;BME280;67394;52.522;13.622;2023-10-13T07:15:08;100558.53;;;14.57;100.00
78144;BME280;67394;52.522;13.622;2023-10-13T07:17:35;100558.19;;;14.76;100.00
78144;BME280;67394;52.522;13.622;2023-10-13T07:20:01;100562.38;;;14.83;100.00
78144;BME280;67394;52.522;13.622;2023-10-13T07:22:29;100561.34;;;14.91;100.00
78144;BME280;67394;52.522;13.622;2023-10-13T07:24:56;100562.81;;;15.03;100.00
78144;BME280;67394;52.522;13.622;2023-10-13T07:27:23;100559.09;;;15.16;100.00
78144;BME280;67394;52.522;13.622;2023-10-13T07:29:56;100558.09;;;15.23;100.00
78144;BME280;67394;52.522;13.622;2023-10-13T07:32:24;100547.66;;;15.28;100.00
78144;BME280;67394;52.522;13.622;2023-10-13T07:34:53;100549.31;;;15.32;100.00
78144;BME280;67394;52.522;13.622;2023-10-13T07:37:20;100547.38;;;15.42;100.00
78144;BME280;67394;52.522;13.622;2023-10-13T07:39:47;100551.69;;;15.41;100.00
78144;BME280;67394;52.522;13.622;2023-10-13T07:42:14;100549.91;;;15.43;100.00
78144;BME280;67394;52.522;13.622;2023-10-13T07:44:41;100537.81;;;15.45;100.00
78144;BME280;67394;52.522;13.622;2023-10-13T07:47:07;100535.06;;;15.53;100.00
78144;BME280;67394;52.522;13.622;2023-10-13T07:49:38;100534.09;;;15.58;100.00
78144;BME280;67394;52.522;13.622;2023-10-13T07:52:08;100533.13;;;15.64;100.00
78144;BME280;67394;52.522;13.622;2023-10-13T07:54:34;100532.03;;;15.72;100.00
78144;BME280;67394;52.522;13.622;2023-10-13T07:57:01;100531.97;;;15.76;100.00
78144;BME280;67394;52.522;13.622;2023-10-13T07:59:28;100530.06;;;15.84;100.00
78144;BME280;67394;52.522;13.622;2023-10-13T08:01:54;100530.03;;;15.85;100.00
78144;BME280;67394;52.522;13.622;2023-10-13T08:04:23;100536.72;;;15.92;100.00
78144;BME280;67394;52.522;13.622;2023-10-13T08:06:49;100531.56;;;15.92;100.00
78144;BME280;67394;52.522;13.622;2023-10-13T08:09:17;100531.53;;;15.94;100.00
78144;BME280;67394;52.522;13.622;2023-10-13T08:11:43;100527.03;;;16.00;100.00
78144;BME280;67394;52.522;13.622;2023-10-13T08:14:12;100528.84;;;15.98;100.00
78144;BME280;67394;52.522;13.622;2023-10-13T08:16:56;100533.88;;;16.03;100.00
78144;BME280;67394;52.522;13.622;2023-10-13T08:19:24;100519.16;;;16.06;100.00
78144;BME280;67394;52.522;13.622;2023-10-13T08:21:51;100509.53;;;16.11;100.00
78144;BME280;67394;52.522;13.622;2023-10-13T08:24:18;100503.41;;;16.16;100.00
78144;BME280;67394;52.522;13.622;2023-10-13T08:26:47;100520.34;;;16.27;100.00
78144;BME280;67394;52.522;13.622;2023-10-13T08:29:14;100517.63;;;16.32;100.00
78144;BME280;67394;52.522;13.622;2023-10-13T08:31:41;100514.03;;;16.37;100.00
78144;BME280;67394;52.522;13.622;2023-10-13T08:34:08;100506.09;;;16.43;100.00
78144;BME280;67394;52.522;13.622;2023-10-13T08:36:35;100510.28;;;16.49;100.00
78144;BME280;67394;52.522;13.622;2023-10-13T08:39:02;100500.69;;;16.53;100.00
78144;BME280;67394;52.522;13.622;2023-10-13T08:41:29;100501.44;;;16.56;100.00
78144;BME280;67394;52.522;13.622;2023-10-13T08:44:01;100497.94;;;16.59;100.00
78144;BME280;67394;52.522;13.622;2023-10-13T08:46:30;100497.00;;;16.63;100.00
78144;BME280;67394;52.522;13.622;2023-10-13T08:48:59;100498.63;;;16.65;100.00
78144;BME280;67394;52.522;13.622;2023-10-13T08:51:28;100502.06;;;16.66;100.00
78144;BME280;67394;52.522;13.622;2023-10-13T08:53:59;100497.75;;;16.66;100.00
78144;BME280;67394;52.522;13.622;2023-10-13T08:56:26;100486.50;;;16.67;100.00
78144;BME280;67394;52.522;13.622;2023-10-13T08:58:53;100476.91;;;16.71;100.00
78144;BME280;67394;52.522;13.622;2023-10-13T09:03:57;100475.78;;;16.79;100.00
78144;BME280;67394;52.522;13.622;2023-10-13T09:06:26;100473.22;;;16.79;100.00
78144;BME280;67394;52.522;13.622;2023-10-13T09:08:53;100475.72;;;16.82;100.00
78144;BME280;67394;52.522;13.622;2023-10-13T09:11:20;100468.81;;;16.83;100.00
78144;BME280;67394;52.522;13.622;2023-10-13T09:13:46;100469.53;;;16.87;100.00
78144;BME280;67394;52.522;13.622;2023-10-13T09:16:13;100462.47;;;16.93;100.00
78144;BME280;67394;52.522;13.622;2023-10-13T09:18:43;100471.00;;;16.95;100.00
78144;BME280;67394;52.522;13.622;2023-10-13T09:21:09;100457.91;;;17.01;100.00
78144;BME280;67394;52.522;13.622;2023-10-13T09:23:45;100457.81;;;17.04;100.00
78144;BME280;67394;52.522;13.622;2023-10-13T09:26:12;100452.44;;;17.10;100.00
78144;BME280;67394;52.522;13.622;2023-10-13T09:28:39;100455.06;;;17.09;100.00
78144;BME280;67394;52.522;13.622;2023-10-13T09:31:06;100454.13;;;17.11;100.00
78144;BME280;67394;52.522;13.622;2023-10-13T09:33:33;100442.09;;;17.09;100.00
78144;BME280;67394;52.522;13.622;2023-10-13T09:36:00;100452.38;;;17.12;100.00
78144;BME280;67394;52.522;13.622;2023-10-13T09:38:32;100442.16;;;17.07;100.00
78144;BME280;67394;52.522;13.622;2023-10-13T09:40:59;100440.44;;;17.06;100.00
78144;BME280;67394;52.522;13.622;2023-10-13T09:43:26;100429.25;;;17.06;100.00
78144;BME280;67394;52.522;13.622;2023-10-13T09:45:58;100428.47;;;17.04;100.00
78144;BME280;67394;52.522;13.622;2023-10-13T09:48:31;100431.03;;;17.05;100.00
78144;BME280;67394;52.522;13.622;2023-10-13T09:51:04;100412.88;;;17.05;100.00
78144;BME280;67394;52.522;13.622;2023-10-13T09:53:32;100417.16;;;17.06;100.00
78144;BME280;67394;52.522;13.622;2023-10-13T09:56:01;100409.25;;;17.11;100.00
78144;BME280;67394;52.522;13.622;2023-10-13T09:58:29;100404.19;;;17.06;100.00
78144;BME280;67394;52.522;13.622;2023-10-13T10:00:59;100398.03;;;17.10;100.00
78144;BME280;67394;52.522;13.622;2023-10-13T10:03:30;100393.78;;;17.08;100.00
78144;BME280;67394;52.522;13.622;2023-10-13T10:06:02;100389.47;;;17.08;100.00
78144;BME280;67394;52.522;13.622;2023-10-13T10:08:33;100382.53;;;17.09;100.00
78144;BME280;67394;52.522;13.622;2023-10-13T10:14:16;100375.88;;;17.02;100.00
78144;BME280;67394;52.522;13.622;2023-10-13T10:17:05;100369.06;;;16.98;100.00
78144;BME280;67394;52.522;13.622;2023-10-13T10:19:32;100366.59;;;16.95;100.00
78144;BME280;67394;52.522;13.622;2023-10-13T10:22:02;100366.44;;;16.99;100.00
78144;BME280;67394;52.522;13.622;2023-10-13T10:24:29;100369.97;;;16.97;100.00
78144;BME280;67394;52.522;13.622;2023-10-13T10:26:56;100363.06;;;16.97;100.00
78144;BME280;67394;52.522;13.622;2023-10-13T10:29:23;100363.56;;;17.08;100.00
78144;BME280;67394;52.522;13.622;2023-10-13T10:31:50;100361.13;;;17.04;100.00
78144;BME280;67394;52.522;13.622;2023-10-13T10:34:19;100360.25;;;17.05;100.00
78144;BME280;67394;52.522;13.622;2023-10-13T10:36:53;100357.56;;;17.06;100.00
78144;BME280;67394;52.522;13.622;2023-10-13T10:39:20;100354.75;;;17.14;100.00
78144;BME280;67394;52.522;13.622;2023-10-13T10:41:46;100349.59;;;17.14;100.00
78144;BME280;67394;52.522;13.622;2023-10-13T10:44:14;100350.44;;;17.14;100.00
78144;BME280;67394;52.522;13.622;2023-10-13T10:46:42;100357.22;;;17.17;100.00
78144;BME280;67394;52.522;13.622;2023-10-13T10:49:09;100352.69;;;17.25;100.00
78144;BME280;67394;52.522;13.622;2023-10-13T10:51:40;100352.75;;;17.22;100.00
78144;BME280;67394;52.522;13.622;2023-10-13T10:54:19;100351.03;;;17.23;100.00
78144;BME280;67394;52.522;13.622;2023-10-13T10:56:47;100358.94;;;17.18;100.00
78144;BME280;67394;52.522;13.622;2023-10-13T10:59:14;100339.22;;;17.14;100.00
78144;BME280;67394;52.522;13.622;2023-10-13T11:01:42;100332.38;;;17.11;100.00
78144;BME280;67394;52.522;13.622;2023-10-13T11:04:09;100334.97;;;17.11;100.00
78144;BME280;67394;52.522;13.622;2023-10-13T11:06:36;100328.94;;;17.11;100.00
78144;BME280;67394;52.522;13.622;2023-10-13T11:09:06;100309.06;;;17.11;100.00
78144;BME280;67394;52.522;13.622;2023-10-13T11:11:33;100304.66;;;17.15;100.00
78144;BME280;67394;52.522;13.622;2023-10-13T11:14:01;100305.38;;;17.18;100.00
78144;BME280;67394;52.522;13.622;2023-10-13T11:16:29;100298.38;;;17.22;100.00
78144;BME280;67394;52.522;13.622;2023-10-13T11:19:02;100281.69;;;17.29;100.00
78144;BME280;67394;52.522;13.622;2023-10-13T11:21:29;100295.38;;;17.34;100.00
78144;BME280;67394;52.522;13.622;2023-10-13T11:23:57;100290.09;;;17.37;100.00
78144;BME280;67394;52.522;13.622;2023-10-13T11:26:34;100283.88;;;17.41;100.00
78144;BME280;67394;52.522;13.622;2023-10-13T11:29:01;100277.56;;;17.48;100.00
78144;BME280;67394;52.522;13.622;2023-10-13T11:31:30;100287.84;;;17.51;100.00
78144;BME280;67394;52.522;13.622;2023-10-13T11:33:57;100282.50;;;17.56;100.00
78144;BME280;67394;52.522;13.622;2023-10-13T11:36:25;100274.59;;;17.59;100.00
78144;BME280;67394;52.522;13.622;2023-10-13T11:38:51;100267.69;;;17.60;100.00
78144;BME280;67394;52.522;13.622;2023-10-13T11:41:18;100277.28;;;17.58;100.00
78144;BME280;67394;52.522;13.622;2023-10-13T11:43:47;100273.00;;;17.56;100.00
78144;BME280;67394;52.522;13.622;2023-10-13T11:46:25;100266.00;;;17.59;100.00
78144;BME280;67394;52.522;13.622;2023-10-13T11:48:51;100265.94;;;17.60;100.00
78144;BME280;67394;52.522;13.622;2023-10-13T11:51:18;100262.56;;;17.58;100.00
78144;BME280;67394;52.522;13.622;2023-10-13T11:53:45;100256.53;;;17.58;100.00
78144;BME280;67394;52.522;13.622;2023-10-13T11:56:12;100260.03;;;17.56;100.00
78144;BME280;67394;52.522;13.622;2023-10-13T11:58:40;100250.31;;;17.63;100.00
78144;BME280;67394;52.522;13.622;2023-10-13T12:01:10;100254.44;;;17.69;100.00
78144;BME280;67394;52.522;13.622;2023-10-13T12:03:37;100255.91;;;17.76;100.00
78144;BME280;67394;52.522;13.622;2023-10-13T12:06:08;100237.69;;;17.77;100.00
78144;BME280;67394;52.522;13.622;2023-10-13T12:08:37;100233.38;;;17.78;100.00
78144;BME280;67394;52.522;13.622;2023-10-13T12:11:04;100228.88;;;17.81;100.00
78144;BME280;67394;52.522;13.622;2023-10-13T12:13:31;100229.63;;;17.85;100.00
78144;BME280;67394;52.522;13.622;2023-10-13T12:15:57;100225.94;;;17.90;100.00
78144;BME280;67394;52.522;13.622;2023-10-13T12:18:24;100215.31;;;17.98;100.00
78144;BME280;67394;52.522;13.622;2023-10-13T12:20:52;100211.69;;;18.02;100.00
78144;BME280;67394;52.522;13.622;2023-10-13T12:23:19;100215.06;;;18.04;100.00
78144;BME280;67394;52.522;13.622;2023-10-13T12:25:45;100213.25;;;18.06;100.00
78144;BME280;67394;52.522;13.622;2023-10-13T12:28:12;100197.53;;;18.11;100.00
78144;BME280;67394;52.522;13.622;2023-10-13T12:30:42;100193.00;;;18.16;100.00
78144;BME280;67394;52.522;13.622;2023-10-13T12:33:09;100192.03;;;18.18;100.00
78144;BME280;67394;52.522;13.622;2023-10-13T12:35:39;100194.28;;;18.27;100.00
78144;BME280;67394;52.522;13.622;2023-10-13T12:38:06;100183.72;;;18.32;100.00